sensor_id;sensor_type;location;lat;lon;timestamp;pressure;altitude;pressure_sealevel;temperature;humidity
27210;BME280;14721;42.668;23.386;2023-12-07T00:01:40;94933.53;;;5.71;100.00
27210;BME280;14721;42.668;23.386;2023-12-07T00:04:06;94949.16;;;5.75;100.00
27210;BME280;14721;42.668;23.386;2023-12-07T00:06:32;94983.19;;;5.97;100.00
27210;BME280;14721;42.668;23.386;2023-12-07T00:08:57;94990.38;;;5.95;100.00
27210;BME280;14721;42.668;23.386;2023-12-07T00:11:24;94999.66;;;6.02;100.00
27210;BME280;14721;42.668;23.386;2023-12-07T00:13:49;95004.59;;;5.94;100.00
27210;BME280;14721;42.668;23.386;2023-12-07T00:16:15;95011.78;;;6.06;100.00
27210;BME280;14721;42.668;23.386;2023-12-07T00:18:43;94991.63;;;5.90;100.00
27210;BME280;14721;42.668;23.386;2023-12-07T00:21:09;94961.88;;;5.85;100.00
27210;BME280;14721;42.668;23.386;2023-12-07T00:23:36;94983.72;;;6.02;100.00
27210;BME280;14721;42.668;23.386;2023-12-07T00:26:04;94995.22;;;6.17;100.00
27210;BME280;14721;42.668;23.386;2023-12-07T00:28:32;95004.38;;;6.11;100.00
27210;BME280;14721;42.668;23.386;2023-12-07T00:30:58;95002.03;;;6.21;100.00
27210;BME280;14721;42.668;23.386;2023-12-07T00:33:23;94983.84;;;6.15;100.00
27210;BME280;14721;42.668;23.386;2023-12-07T00:35:49;94969.44;;;6.05;100.00
27210;BME280;14721;42.668;23.386;2023-12-07T00:38:15;94958.75;;;6.06;100.00
27210;BME280;14721;42.668;23.386;2023-12-07T00:40:40;94991.69;;;6.16;100.00
27210;BME280;14721;42.668;23.386;2023-12-07T00:43:09;94964.06;;;6.06;100.00
27210;BME280;14721;42.668;23.386;2023-12-07T00:45:36;94982.13;;;6.14;100.00
27210;BME280;14721;42.668;23.386;2023-12-07T00:48:04;94949.34;;;6.01;100.00
27210;BME280;14721;42.668;23.386;2023-12-07T00:50:31;94990.16;;;6.26;100.00
27210;BME280;14721;42.668;23.386;2023-12-07T00:52:57;94992.72;;;6.28;100.00
27210;BME280;14721;42.668;23.386;2023-12-07T00:55:25;94992.53;;;6.31;100.00
27210;BME280;14721;42.668;23.386;2023-12-07T00:57:53;94965.06;;;6.04;100.00
27210;BME280;14721;42.668;23.386;2023-12-07T01:00:26;94934.88;;;5.92;100.00
27210;BME280;14721;42.668;23.386;2023-12-07T01:02:54;94969.81;;;6.13;100.00
27210;BME280;14721;42.668;23.386;2023-12-07T01:05:20;94986.50;;;6.15;100.00
27210;BME280;14721;42.668;23.386;2023-12-07T01:07:49;94986.38;;;6.16;100.00
27210;BME280;14721;42.668;23.386;2023-12-07T01:10:14;94981.66;;;5.93;100.00
27210;BME280;14721;42.668;23.386;2023-12-07T01:12:40;94966.41;;;5.82;100.00
27210;BME280;14721;42.668;23.386;2023-12-07T01:15:14;94987.06;;;5.92;100.00
27210;BME280;14721;42.668;23.386;2023-12-07T01:17:39;94954.53;;;5.74;100.00
27210;BME280;14721;42.668;23.386;2023-12-07T01:20:07;94978.88;;;5.80;100.00
27210;BME280;14721;42.668;23.386;2023-12-07T01:22:39;94985.25;;;5.92;100.00
27210;BME280;14721;42.668;23.386;2023-12-07T01:25:09;94980.16;;;5.89;100.00
27210;BME280;14721;42.668;23.386;2023-12-07T01:27:38;94988.41;;;5.99;100.00
27210;BME280;14721;42.668;23.386;2023-12-07T01:30:07;94985.56;;;6.02;100.00
27210;BME280;14721;42.668;23.386;2023-12-07T01:32:33;94984.69;;;6.01;100.00
27210;BME280;14721;42.668;23.386;2023-12-07T01:35:08;94954.00;;;5.83;100.00
27210;BME280;14721;42.668;23.386;2023-12-07T01:37:40;94922.44;;;5.64;100.00
27210;BME280;14721;42.668;23.386;2023-12-07T01:40:13;94976.44;;;6.06;100.00
27210;BME280;14721;42.668;23.386;2023-12-07T01:42:51;94970.19;;;6.07;100.00
27210;BME280;14721;42.668;23.386;2023-12-07T01:45:16;94946.53;;;5.90;100.00
27210;BME280;14721;42.668;23.386;2023-12-07T01:47:43;94930.97;;;5.69;100.00
27210;BME280;14721;42.668;23.386;2023-12-07T01:50:23;94933.44;;;5.72;100.00
27210;BME280;14721;42.668;23.386;2023-12-07T01:53:03;94970.59;;;5.87;100.00
27210;BME280;14721;42.668;23.386;2023-12-07T01:55:31;94970.50;;;5.88;100.00
27210;BME280;14721;42.668;23.386;2023-12-07T01:58:19;94937.97;;;5.70;100.00
27210;BME280;14721;42.668;23.386;2023-12-07T02:01:08;94944.88;;;5.59;100.00
27210;BME280;14721;42.668;23.386;2023-12-07T02:03:43;94893.75;;;5.29;100.00
27210;BME280;14721;42.668;23.386;2023-12-07T02:06:09;94979.91;;;5.78;100.00
27210;BME280;14721;42.668;23.386;2023-12-07T02:08:36;94950.38;;;5.56;100.00
27210;BME280;14721;42.668;23.386;2023-12-07T02:11:07;94976.63;;;5.74;100.00
27210;BME280;14721;42.668;23.386;2023-12-07T02:13:35;94961.00;;;5.70;100.00
27210;BME280;14721;42.668;23.386;2023-12-07T02:16:05;94972.97;;;5.91;100.00
27210;BME280;14721;42.668;23.386;2023-12-07T02:18:43;94950.56;;;5.81;100.00
27210;BME280;14721;42.668;23.386;2023-12-07T02:21:21;94905.00;;;5.46;100.00
27210;BME280;14721;42.668;23.386;2023-12-07T02:23:51;94965.28;;;5.87;100.00
27210;BME280;14721;42.668;23.386;2023-12-07T02:26:49;94972.69;;;5.96;100.00
27210;BME280;14721;42.668;23.386;2023-12-07T02:29:15;94949.28;;;5.88;100.00
27210;BME280;14721;42.668;23.386;2023-12-07T02:34:41;94961.41;;;5.92;100.00
27210;BME280;14721;42.668;23.386;2023-12-07T02:37:07;94920.75;;;5.77;100.00
27210;BME280;14721;42.668;23.386;2023-12-07T02:39:34;94950.13;;;6.03;100.00
27210;BME280;14721;42.668;23.386;2023-12-07T02:42:01;94908.34;;;5.78;100.00
27210;BME280;14721;42.668;23.386;2023-12-07T02:44:26;94936.09;;;6.01;100.00
27210;BME280;14721;42.668;23.386;2023-12-07T02:46:55;94917.53;;;5.72;100.00
27210;BME280;14721;42.668;23.386;2023-12-07T02:49:22;94959.03;;;6.02;100.00
27210;BME280;14721;42.668;23.386;2023-12-07T02:51:48;94922.69;;;5.90;100.00
27210;BME280;14721;42.668;23.386;2023-12-07T02:54:13;94934.69;;;5.95;100.00
27210;BME280;14721;42.668;23.386;2023-12-07T02:56:40;94951.91;;;6.02;100.00
27210;BME280;14721;42.668;23.386;2023-12-07T02:59:06;94932.31;;;5.91;100.00
27210;BME280;14721;42.668;23.386;2023-12-07T03:01:37;94905.13;;;5.73;100.00
27210;BME280;14721;42.668;23.386;2023-12-07T03:04:03;94959.28;;;6.11;100.00
27210;BME280;14721;42.668;23.386;2023-12-07T03:06:28;94958.81;;;6.19;100.00
27210;BME280;14721;42.668;23.386;2023-12-07T03:08:54;94965.16;;;6.16;100.00
27210;BME280;14721;42.668;23.386;2023-12-07T03:11:21;94954.94;;;6.10;100.00
27210;BME280;14721;42.668;23.386;2023-12-07T03:13:46;94967.91;;;6.15;100.00
27210;BME280;14721;42.668;23.386;2023-12-07T03:16:23;94915.66;;;5.74;100.00
27210;BME280;14721;42.668;23.386;2023-12-07T03:19:12;94960.16;;;6.12;100.00
27210;BME280;14721;42.668;23.386;2023-12-07T03:21:48;94963.38;;;6.03;100.00
27210;BME280;14721;42.668;23.386;2023-12-07T03:24:24;94895.50;;;5.58;100.00
27210;BME280;14721;42.668;23.386;2023-12-07T03:26:53;94998.34;;;6.09;100.00
27210;BME280;14721;42.668;23.386;2023-12-07T03:30:07;94923.09;;;5.54;100.00
27210;BME280;14721;42.668;23.386;2023-12-07T03:32:34;94968.94;;;5.70;100.00
27210;BME280;14721;42.668;23.386;2023-12-07T03:35:00;94973.16;;;5.58;100.00
27210;BME280;14721;42.668;23.386;2023-12-07T03:37:26;94937.00;;;5.43;100.00
27210;BME280;14721;42.668;23.386;2023-12-07T03:40:01;94957.84;;;5.63;100.00
27210;BME280;14721;42.668;23.386;2023-12-07T03:46:45;94977.06;;;5.81;100.00
27210;BME280;14721;42.668;23.386;2023-12-07T03:49:35;94993.31;;;5.91;100.00
27210;BME280;14721;42.668;23.386;2023-12-07T03:52:19;94917.78;;;5.54;100.00
27210;BME280;14721;42.668;23.386;2023-12-07T03:55:06;94985.09;;;6.09;100.00
27210;BME280;14721;42.668;23.386;2023-12-07T04:03:55;94933.16;;;5.77;100.00
27210;BME280;14721;42.668;23.386;2023-12-07T04:06:39;94987.06;;;6.06;100.00
27210;BME280;14721;42.668;23.386;2023-12-07T04:09:10;94883.19;;;5.43;100.00
27210;BME280;14721;42.668;23.386;2023-12-07T04:11:46;94954.41;;;5.91;100.00
27210;BME280;14721;42.668;23.386;2023-12-07T04:14:11;94959.22;;;5.99;100.00
27210;BME280;14721;42.668;23.386;2023-12-07T04:16:42;94958.94;;;5.89;100.00
27210;BME280;14721;42.668;23.386;2023-12-07T04:19:12;94898.13;;;5.44;100.00
27210;BME280;14721;42.668;23.386;2023-12-07T04:21:38;94950.50;;;5.82;100.00
27210;BME280;14721;42.668;23.386;2023-12-07T04:24:06;94960.25;;;6.10;100.00
27210;BME280;14721;42.668;23.386;2023-12-07T04:26:32;94955.03;;;6.09;100.00
27210;BME280;14721;42.668;23.386;2023-12-07T04:28:59;94975.00;;;6.28;100.00
27210;BME280;14721;42.668;23.386;2023-12-07T04:31:24;94982.59;;;6.34;100.00
27210;BME280;14721;42.668;23.386;2023-12-07T04:33:50;94983.44;;;6.35;100.00
27210;BME280;14721;42.668;23.386;2023-12-07T04:36:16;94979.94;;;6.34;100.00
27210;BME280;14721;42.668;23.386;2023-12-07T04:38:42;94988.16;;;6.44;100.00
27210;BME280;14721;42.668;23.386;2023-12-07T04:41:12;94993.63;;;6.55;100.00
27210;BME280;14721;42.668;23.386;2023-12-07T04:43:38;94972.75;;;6.36;100.00
27210;BME280;14721;42.668;23.386;2023-12-07T04:46:11;95010.88;;;6.62;100.00
27210;BME280;14721;42.668;23.386;2023-12-07T04:48:37;95007.28;;;6.63;100.00
27210;BME280;14721;42.668;23.386;2023-12-07T04:51:16;94999.59;;;6.58;100.00
27210;BME280;14721;42.668;23.386;2023-12-07T04:53:42;94988.50;;;6.66;100.00
27210;BME280;14721;42.668;23.386;2023-12-07T04:56:08;94954.59;;;6.43;100.00
27210;BME280;14721;42.668;23.386;2023-12-07T04:58:48;94978.47;;;6.57;100.00
27210;BME280;14721;42.668;23.386;2023-12-07T05:01:17;95009.25;;;6.73;100.00
27210;BME280;14721;42.668;23.386;2023-12-07T05:03:44;95007.34;;;6.75;100.00
27210;BME280;14721;42.668;23.386;2023-12-07T05:06:10;95006.97;;;6.67;100.00
27210;BME280;14721;42.668;23.386;2023-12-07T05:08:36;95005.31;;;6.52;100.00
27210;BME280;14721;42.668;23.386;2023-12-07T05:11:02;94996.53;;;6.38;100.00
27210;BME280;14721;42.668;23.386;2023-12-07T05:13:30;94995.38;;;6.28;100.00
27210;BME280;14721;42.668;23.386;2023-12-07T05:16:31;94996.25;;;6.28;100.00
27210;BME280;14721;42.668;23.386;2023-12-07T05:19:20;95019.25;;;6.42;100.00
27210;BME280;14721;42.668;23.386;2023-12-07T05:21:51;95011.38;;;6.26;100.00
27210;BME280;14721;42.668;23.386;2023-12-07T05:24:17;95020.78;;;6.32;100.00
27210;BME280;14721;42.668;23.386;2023-12-07T05:26:46;95000.50;;;6.31;100.00
27210;BME280;14721;42.668;23.386;2023-12-07T05:29:12;94962.13;;;6.08;100.00
27210;BME280;14721;42.668;23.386;2023-12-07T05:31:39;95015.00;;;6.39;100.00
27210;BME280;14721;42.668;23.386;2023-12-07T05:34:05;95017.94;;;6.35;100.00
27210;BME280;14721;42.668;23.386;2023-12-07T05:36:33;95019.53;;;6.23;100.00
27210;BME280;14721;42.668;23.386;2023-12-07T05:38:58;95031.41;;;6.32;100.00
27210;BME280;14721;42.668;23.386;2023-12-07T05:41:25;95041.72;;;6.36;100.00
27210;BME280;14721;42.668;23.386;2023-12-07T05:43:53;95027.69;;;6.20;100.00
27210;BME280;14721;42.668;23.386;2023-12-07T05:46:19;95027.31;;;6.12;100.00
27210;BME280;14721;42.668;23.386;2023-12-07T05:48:45;95026.56;;;6.24;100.00
27210;BME280;14721;42.668;23.386;2023-12-07T05:51:15;95042.28;;;6.41;100.00
27210;BME280;14721;42.668;23.386;2023-12-07T05:53:41;95002.31;;;6.30;100.00
27210;BME280;14721;42.668;23.386;2023-12-07T05:56:07;95034.78;;;6.48;100.00
27210;BME280;14721;42.668;23.386;2023-12-07T05:58:33;95017.56;;;6.27;100.00
27210;BME280;14721;42.668;23.386;2023-12-07T06:01:00;95038.69;;;6.28;100.00
27210;BME280;14721;42.668;23.386;2023-12-07T06:03:26;95027.13;;;6.29;100.00
27210;BME280;14721;42.668;23.386;2023-12-07T06:05:52;95022.56;;;6.17;100.00
27210;BME280;14721;42.668;23.386;2023-12-07T06:08:18;95039.91;;;6.37;100.00
27210;BME280;14721;42.668;23.386;2023-12-07T06:10:43;95055.53;;;6.41;100.00
27210;BME280;14721;42.668;23.386;2023-12-07T06:13:09;95049.78;;;6.35;100.00
27210;BME280;14721;42.668;23.386;2023-12-07T06:15:36;95054.22;;;6.34;100.00
27210;BME280;14721;42.668;23.386;2023-12-07T06:18:01;95057.72;;;6.49;100.00
27210;BME280;14721;42.668;23.386;2023-12-07T06:20:28;95060.56;;;6.46;100.00
27210;BME280;14721;42.668;23.386;2023-12-07T06:22:56;95042.28;;;6.27;100.00
27210;BME280;14721;42.668;23.386;2023-12-07T06:25:23;95036.91;;;6.29;100.00
27210;BME280;14721;42.668;23.386;2023-12-07T06:27:48;95068.34;;;6.49;100.00
27210;BME280;14721;42.668;23.386;2023-12-07T06:30:14;95046.06;;;6.37;100.00
27210;BME280;14721;42.668;23.386;2023-12-07T06:32:40;95070.69;;;6.53;100.00
27210;BME280;14721;42.668;23.386;2023-12-07T06:35:05;95065.00;;;6.59;100.00
27210;BME280;14721;42.668;23.386;2023-12-07T06:37:31;95048.81;;;6.50;100.00
27210;BME280;14721;42.668;23.386;2023-12-07T06:39:57;95011.00;;;6.32;100.00
27210;BME280;14721;42.668;23.386;2023-12-07T06:42:24;95005.78;;;6.31;100.00
27210;BME280;14721;42.668;23.386;2023-12-07T06:44:49;95060.56;;;6.46;100.00
27210;BME280;14721;42.668;23.386;2023-12-07T06:47:15;95055.63;;;6.54;100.00
27210;BME280;14721;42.668;23.386;2023-12-07T06:49:41;95064.38;;;6.56;100.00
27210;BME280;14721;42.668;23.386;2023-12-07T06:52:07;95049.38;;;6.55;100.00
27210;BME280;14721;42.668;23.386;2023-12-07T06:54:33;95074.66;;;6.74;100.00
27210;BME280;14721;42.668;23.386;2023-12-07T06:56:59;95076.28;;;6.77;100.00
27210;BME280;14721;42.668;23.386;2023-12-07T06:59:24;95066.41;;;6.79;100.00
27210;BME280;14721;42.668;23.386;2023-12-07T07:01:50;95060.78;;;6.83;100.00
27210;BME280;14721;42.668;23.386;2023-12-07T07:04:15;95064.28;;;6.98;100.00
27210;BME280;14721;42.668;23.386;2023-12-07T07:06:42;95048.25;;;6.99;100.00
27210;BME280;14721;42.668;23.386;2023-12-07T07:09:12;95075.22;;;7.20;100.00
27210;BME280;14721;42.668;23.386;2023-12-07T07:11:40;95061.56;;;7.12;100.00
27210;BME280;14721;42.668;23.386;2023-12-07T07:14:06;95041.03;;;7.01;100.00
27210;BME280;14721;42.668;23.386;2023-12-07T07:16:31;95079.28;;;7.25;100.00
27210;BME280;14721;42.668;23.386;2023-12-07T07:18:58;95078.16;;;7.29;100.00
27210;BME280;14721;42.668;23.386;2023-12-07T07:21:23;95074.38;;;7.19;100.00
27210;BME280;14721;42.668;23.386;2023-12-07T07:23:51;95070.69;;;7.22;100.00
27210;BME280;14721;42.668;23.386;2023-12-07T07:26:27;95071.06;;;7.16;100.00
27210;BME280;14721;42.668;23.386;2023-12-07T07:28:53;95076.81;;;7.22;100.00
27210;BME280;14721;42.668;23.386;2023-12-07T07:31:18;95070.41;;;7.12;100.00
27210;BME280;14721;42.668;23.386;2023-12-07T07:33:45;95087.34;;;7.24;100.00
27210;BME280;14721;42.668;23.386;2023-12-07T07:36:12;95085.09;;;7.18;100.00
27210;BME280;14721;42.668;23.386;2023-12-07T07:38:38;95088.63;;;7.04;100.00
27210;BME280;14721;42.668;23.386;2023-12-07T07:41:04;95086.47;;;6.97;100.00
27210;BME280;14721;42.668;23.386;2023-12-07T07:43:30;95061.94;;;6.79;100.00
27210;BME280;14721;42.668;23.386;2023-12-07T07:45:55;95086.97;;;6.89;100.00
27210;BME280;14721;42.668;23.386;2023-12-07T07:48:21;95072.66;;;6.78;100.00
27210;BME280;14721;42.668;23.386;2023-12-07T07:50:47;95100.91;;;6.79;100.00
27210;BME280;14721;42.668;23.386;2023-12-07T07:53:13;95106.50;;;6.88;100.00
27210;BME280;14721;42.668;23.386;2023-12-07T07:55:41;95098.84;;;6.84;100.00
27210;BME280;14721;42.668;23.386;2023-12-07T07:58:07;95108.06;;;6.78;100.00
27210;BME280;14721;42.668;23.386;2023-12-07T08:00:38;95101.50;;;6.70;100.00
27210;BME280;14721;42.668;23.386;2023-12-07T08:03:17;95078.41;;;6.44;100.00
27210;BME280;14721;42.668;23.386;2023-12-07T08:08:52;95126.16;;;6.58;100.00
27210;BME280;14721;42.668;23.386;2023-12-07T08:11:40;95095.72;;;6.35;100.00
27210;BME280;14721;42.668;23.386;2023-12-07T08:14:49;95065.31;;;6.27;100.00
27210;BME280;14721;42.668;23.386;2023-12-07T08:17:39;95095.81;;;6.20;100.00
27210;BME280;14721;42.668;23.386;2023-12-07T08:23:25;95131.66;;;6.41;100.00
27210;BME280;14721;42.668;23.386;2023-12-07T08:32:53;95140.06;;;6.19;100.00
27210;BME280;14721;42.668;23.386;2023-12-07T08:36:05;95066.47;;;5.79;100.00
27210;BME280;14721;42.668;23.386;2023-12-07T08:42:23;95110.25;;;5.86;100.00
27210;BME280;14721;42.668;23.386;2023-12-07T09:11:13;95120.75;;;5.72;100.00
27210;BME280;14721;42.668;23.386;2023-12-07T09:14:41;95094.31;;;5.56;100.00
27210;BME280;14721;42.668;23.386;2023-12-07T09:21:16;95105.31;;;5.64;100.00
27210;BME280;14721;42.668;23.386;2023-12-07T09:27:02;95133.47;;;5.51;100.00
27210;BME280;14721;42.668;23.386;2023-12-07T09:29:46;95132.13;;;5.44;100.00
27210;BME280;14721;42.668;23.386;2023-12-07T09:32:26;95124.09;;;5.46;100.00
27210;BME280;14721;42.668;23.386;2023-12-07T09:35:04;95155.19;;;5.58;100.00
27210;BME280;14721;42.668;23.386;2023-12-07T09:37:53;95133.41;;;5.37;100.00
27210;BME280;14721;42.668;23.386;2023-12-07T09:40:20;95072.22;;;4.81;100.00
27210;BME280;14721;42.668;23.386;2023-12-07T09:42:46;95109.63;;;4.91;100.00
27210;BME280;14721;42.668;23.386;2023-12-07T09:45:13;95160.75;;;5.22;100.00
27210;BME280;14721;42.668;23.386;2023-12-07T09:47:59;95148.84;;;5.00;100.00
27210;BME280;14721;42.668;23.386;2023-12-07T09:50:27;95157.28;;;4.91;100.00
27210;BME280;14721;42.668;23.386;2023-12-07T09:52:57;95118.16;;;4.65;100.00
27210;BME280;14721;42.668;23.386;2023-12-07T09:55:23;95152.91;;;4.74;100.00
27210;BME280;14721;42.668;23.386;2023-12-07T09:57:50;95162.56;;;4.75;100.00
27210;BME280;14721;42.668;23.386;2023-12-07T10:00:17;95117.03;;;4.53;100.00
27210;BME280;14721;42.668;23.386;2023-12-07T10:02:45;95119.44;;;4.58;100.00
27210;BME280;14721;42.668;23.386;2023-12-07T10:05:13;95155.81;;;4.85;100.00
27210;BME280;14721;42.668;23.386;2023-12-07T10:07:43;95105.16;;;4.60;100.00
27210;BME280;14721;42.668;23.386;2023-12-07T10:10:10;95145.03;;;4.57;100.00
27210;BME280;14721;42.668;23.386;2023-12-07T10:12:54;95140.75;;;4.55;100.00
27210;BME280;14721;42.668;23.386;2023-12-07T10:15:22;95131.50;;;4.46;100.00
27210;BME280;14721;42.668;23.386;2023-12-07T10:17:58;95155.56;;;4.74;100.00
27210;BME280;14721;42.668;23.386;2023-12-07T10:20:27;95129.22;;;4.56;100.00
27210;BME280;14721;42.668;23.386;2023-12-07T10:23:03;95146.38;;;4.64;100.00
27210;BME280;14721;42.668;23.386;2023-12-07T10:25:32;95140.50;;;4.59;100.00
27210;BME280;14721;42.668;23.386;2023-12-07T10:28:01;95143.56;;;4.52;100.00
27210;BME280;14721;42.668;23.386;2023-12-07T10:30:33;95131.50;;;4.46;100.00
27210;BME280;14721;42.668;23.386;2023-12-07T10:33:05;95151.25;;;4.56;100.00
27210;BME280;14721;42.668;23.386;2023-12-07T10:35:41;95133.88;;;4.35;100.00
27210;BME280;14721;42.668;23.386;2023-12-07T10:38:11;95149.06;;;4.32;100.00
27210;BME280;14721;42.668;23.386;2023-12-07T10:40:46;95094.69;;;3.93;100.00
27210;BME280;14721;42.668;23.386;2023-12-07T10:43:25;95118.06;;;4.18;100.00
27210;BME280;14721;42.668;23.386;2023-12-07T10:45:54;95156.75;;;4.36;100.00
27210;BME280;14721;42.668;23.386;2023-12-07T10:48:20;95127.16;;;4.13;100.00
27210;BME280;14721;42.668;23.386;2023-12-07T10:51:08;95148.44;;;4.27;100.00
27210;BME280;14721;42.668;23.386;2023-12-07T10:53:40;95159.41;;;4.19;100.00
27210;BME280;14721;42.668;23.386;2023-12-07T10:59:45;95060.53;;;3.39;100.00
27210;BME280;14721;42.668;23.386;2023-12-07T11:02:36;95068.00;;;3.31;100.00
27210;BME280;14721;42.668;23.386;2023-12-07T11:05:26;95140.25;;;3.81;100.00
27210;BME280;14721;42.668;23.386;2023-12-07T11:11:06;95077.41;;;3.37;100.00
27210;BME280;14721;42.668;23.386;2023-12-07T11:13:37;95159.06;;;3.75;100.00
27210;BME280;14721;42.668;23.386;2023-12-07T11:16:04;95095.56;;;3.26;100.00
27210;BME280;14721;42.668;23.386;2023-12-07T11:18:48;95176.31;;;3.65;100.00
27210;BME280;14721;42.668;23.386;2023-12-07T11:21:27;95065.09;;;3.02;100.00
27210;BME280;14721;42.668;23.386;2023-12-07T11:24:02;95131.75;;;3.41;100.00
27210;BME280;14721;42.668;23.386;2023-12-07T11:26:36;95183.28;;;3.49;100.00
27210;BME280;14721;42.668;23.386;2023-12-07T11:29:13;95154.47;;;3.62;100.00
27210;BME280;14721;42.668;23.386;2023-12-07T11:31:41;95152.75;;;3.61;100.00
27210;BME280;14721;42.668;23.386;2023-12-07T11:34:07;95130.16;;;3.55;100.00
27210;BME280;14721;42.668;23.386;2023-12-07T11:36:39;95154.38;;;3.63;100.00
27210;BME280;14721;42.668;23.386;2023-12-07T11:42:15;95082.97;;;3.14;100.00
27210;BME280;14721;42.668;23.386;2023-12-07T11:45:07;95094.72;;;3.25;100.00
27210;BME280;14721;42.668;23.386;2023-12-07T11:47:33;95096.41;;;3.26;100.00
27210;BME280;14721;42.668;23.386;2023-12-07T11:50:09;95148.88;;;3.51;100.00
27210;BME280;14721;42.668;23.386;2023-12-07T11:52:48;95143.75;;;3.48;100.00
27210;BME280;14721;42.668;23.386;2023-12-07T11:55:24;95101.78;;;3.25;100.00
27210;BME280;14721;42.668;23.386;2023-12-07T11:57:50;95102.03;;;3.37;100.00
27210;BME280;14721;42.668;23.386;2023-12-07T12:00:27;95037.16;;;2.98;100.00
27210;BME280;14721;42.668;23.386;2023-12-07T12:03:03;95068.94;;;3.13;100.00
27210;BME280;14721;42.668;23.386;2023-12-07T12:05:35;95129.59;;;3.49;100.00
27210;BME280;14721;42.668;23.386;2023-12-07T12:08:10;95120.59;;;3.53;100.00
27210;BME280;14721;42.668;23.386;2023-12-07T12:10:37;95113.56;;;3.35;100.00
27210;BME280;14721;42.668;23.386;2023-12-07T12:13:29;95062.97;;;2.91;100.00
27210;BME280;14721;42.668;23.386;2023-12-07T12:16:36;95111.84;;;3.17;100.00
27210;BME280;14721;42.668;23.386;2023-12-07T12:19:26;95052.72;;;2.85;100.00
27210;BME280;14721;42.668;23.386;2023-12-07T12:22:03;95121.81;;;3.29;100.00
27210;BME280;14721;42.668;23.386;2023-12-07T12:24:33;95118.78;;;3.19;100.00
27210;BME280;14721;42.668;23.386;2023-12-07T12:27:00;95120.09;;;3.28;100.00
27210;BME280;14721;42.668;23.386;2023-12-07T12:29:26;95098.78;;;3.14;100.00
27210;BME280;14721;42.668;23.386;2023-12-07T12:31:52;95120.44;;;3.39;100.00
27210;BME280;14721;42.668;23.386;2023-12-07T12:34:20;95101.28;;;3.17;100.00
27210;BME280;14721;42.668;23.386;2023-12-07T12:36:46;95125.59;;;3.23;100.00
27210;BME280;14721;42.668;23.386;2023-12-07T12:39:12;95138.06;;;3.38;100.00
27210;BME280;14721;42.668;23.386;2023-12-07T12:41:42;95112.09;;;3.29;100.00
27210;BME280;14721;42.668;23.386;2023-12-07T12:44:08;95142.25;;;3.42;100.00
27210;BME280;14721;42.668;23.386;2023-12-07T12:46:35;95113.88;;;3.29;100.00
27210;BME280;14721;42.668;23.386;2023-12-07T12:49:14;95100.59;;;3.13;100.00
27210;BME280;14721;42.668;23.386;2023-12-07T12:54:56;95149.88;;;3.48;100.00
27210;BME280;14721;42.668;23.386;2023-12-07T12:57:25;95150.81;;;3.47;100.00
27210;BME280;14721;42.668;23.386;2023-12-07T12:59:53;95136.59;;;3.50;100.00
27210;BME280;14721;42.668;23.386;2023-12-07T13:02:34;95090.66;;;3.18;100.00
27210;BME280;14721;42.668;23.386;2023-12-07T13:08:18;95113.38;;;3.04;100.00
27210;BME280;14721;42.668;23.386;2023-12-07T13:10:49;95116.75;;;3.07;100.00
27210;BME280;14721;42.668;23.386;2023-12-07T13:13:46;95126.13;;;3.13;100.00
27210;BME280;14721;42.668;23.386;2023-12-07T13:16:16;95142.19;;;3.08;100.00
27210;BME280;14721;42.668;23.386;2023-12-07T13:18:59;95082.91;;;2.61;100.00
27210;BME280;14721;42.668;23.386;2023-12-07T13:21:50;95068.81;;;2.44;100.00
27210;BME280;14721;42.668;23.386;2023-12-07T13:24:35;95200.56;;;3.02;100.00
27210;BME280;14721;42.668;23.386;2023-12-07T13:27:24;95168.66;;;2.88;100.00
27210;BME280;14721;42.668;23.386;2023-12-07T13:30:00;95161.31;;;2.76;100.00
27210;BME280;14721;42.668;23.386;2023-12-07T13:32:38;95149.56;;;2.65;100.00
27210;BME280;14721;42.668;23.386;2023-12-07T13:35:07;95191.00;;;2.81;100.00
27210;BME280;14721;42.668;23.386;2023-12-07T13:37:35;95188.56;;;2.77;100.00
27210;BME280;14721;42.668;23.386;2023-12-07T13:40:32;95192.16;;;2.76;100.00
27210;BME280;14721;42.668;23.386;2023-12-07T13:43:12;95165.56;;;2.43;100.00
27210;BME280;14721;42.668;23.386;2023-12-07T13:45:49;95178.72;;;2.43;100.00
27210;BME280;14721;42.668;23.386;2023-12-07T13:48:25;95172.94;;;2.35;100.00
27210;BME280;14721;42.668;23.386;2023-12-07T13:50:57;95166.81;;;2.35;100.00
27210;BME280;14721;42.668;23.386;2023-12-07T13:53:25;95114.91;;;1.98;100.00
27210;BME280;14721;42.668;23.386;2023-12-07T13:56:18;95180.13;;;2.32;100.00
27210;BME280;14721;42.668;23.386;2023-12-07T13:58:47;95191.59;;;2.31;100.00
27210;BME280;14721;42.668;23.386;2023-12-07T14:01:40;95220.06;;;2.43;100.00
27210;BME280;14721;42.668;23.386;2023-12-07T14:04:16;95224.38;;;2.44;100.00
27210;BME280;14721;42.668;23.386;2023-12-07T14:06:44;95136.31;;;1.90;100.00
27210;BME280;14721;42.668;23.386;2023-12-07T14:09:17;95151.53;;;1.84;100.00
27210;BME280;14721;42.668;23.386;2023-12-07T14:11:48;95225.72;;;2.34;100.00
27210;BME280;14721;42.668;23.386;2023-12-07T14:14:35;95243.97;;;2.38;100.00
27210;BME280;14721;42.668;23.386;2023-12-07T14:17:15;95232.78;;;2.33;100.00
27210;BME280;14721;42.668;23.386;2023-12-07T14:20:00;95234.19;;;2.22;100.00
27210;BME280;14721;42.668;23.386;2023-12-07T14:22:33;95181.94;;;1.91;100.00
27210;BME280;14721;42.668;23.386;2023-12-07T14:28:11;95228.38;;;2.14;100.00
27210;BME280;14721;42.668;23.386;2023-12-07T14:30:45;95249.94;;;2.23;100.00
27210;BME280;14721;42.668;23.386;2023-12-07T14:33:23;95222.41;;;2.10;100.00
27210;BME280;14721;42.668;23.386;2023-12-07T14:35:51;95176.94;;;1.85;100.00
27210;BME280;14721;42.668;23.386;2023-12-07T14:38:41;95198.47;;;1.94;100.00